Terminal Aerodrome Forecast
Issued by NWS Pueblo, CO

Home | Current Version | Previous Version | Text Only | Print | Product List | Glossary On
Versions: 1 2 3 4 5 6 7 8 9 10 11 12 13 14 15
000
FTUS45 KPUB 202117 AAB
TAFPUB
TAF AMD
KPUB 202117Z 2021/2118 35007KT P6SM SCT050 SCT100
     FM202200 36012G22KT P6SM VCTS SCT050CB BKN100
      TEMPO 2022/2024 VRB20G30KT P6SM BKN050CB
     FM210000 35010KT P6SM SCT060 SCT120
     FM210200 36006KT P6SM FEW070 SCT150=

USA.gov is the U.S. government's official web portal to all federal, state and local government web resources and services.